createdAt,value
2023-05-06T00:00:43.769Z,99.99
2023-05-06T00:01:44.530Z,99.99
2023-05-06T00:02:45.428Z,99.99
2023-05-06T00:03:46.004Z,99.99
2023-05-06T00:04:46.453Z,99.99
2023-05-06T00:05:46.491Z,99.99
2023-05-06T00:06:46.794Z,99.99
2023-05-06T00:07:47.425Z,99.99
2023-05-06T00:08:48.422Z,99.99
2023-05-06T00:09:49.138Z,99.99
2023-05-06T00:10:50.532Z,99.99
2023-05-06T00:11:50.539Z,99.99
2023-05-06T00:12:51.201Z,99.99
2023-05-06T00:13:51.698Z,99.99
2023-05-06T00:14:52.619Z,99.99
2023-05-06T00:15:52.920Z,99.99
2023-05-06T00:16:53.849Z,99.99
2023-05-06T00:17:54.388Z,99.99
2023-05-06T00:18:54.703Z,99.99
2023-05-06T00:19:55.711Z,99.99
2023-05-06T00:20:56.232Z,99.99
2023-05-06T00:21:56.965Z,99.99
2023-05-06T00:22:57.717Z,99.99
2023-05-06T00:23:57.999Z,99.99
2023-05-06T00:24:58.553Z,99.99
2023-05-06T00:25:59.221Z,99.99
2023-05-06T00:26:59.547Z,99.99
2023-05-06T00:28:00.063Z,99.99
2023-05-06T00:29:00.593Z,99.99
2023-05-06T00:30:01.508Z,99.99
2023-05-06T00:31:02.262Z,99.99
2023-05-06T00:32:03.249Z,99.99
2023-05-06T00:33:04.226Z,99.99
2023-05-06T00:34:04.609Z,99.99
2023-05-06T00:35:05.672Z,99.99
2023-05-06T00:36:05.920Z,99.99
2023-05-06T00:37:06.829Z,99.99
2023-05-06T00:38:07.343Z,99.99
2023-05-06T00:39:08.186Z,99.99
2023-05-06T00:40:08.715Z,99.99
2023-05-06T00:41:09.547Z,99.99
2023-05-06T00:42:10.252Z,99.99
2023-05-06T00:43:10.686Z,99.99
2023-05-06T00:44:11.549Z,99.99
2023-05-06T00:45:12.256Z,99.99
2023-05-06T00:46:12.921Z,99.99
2023-05-06T00:47:13.559Z,99.99
2023-05-06T00:48:14.131Z,99.99
2023-05-06T00:49:14.798Z,99.99
2023-05-06T00:50:15.957Z,99.99
2023-05-06T00:51:16.810Z,99.99
2023-05-06T00:52:16.779Z,99.99
2023-05-06T00:53:17.282Z,99.99
2023-05-06T00:54:17.988Z,99.99
2023-05-06T00:55:18.698Z,99.99
2023-05-06T00:56:20.835Z,99.99
2023-05-06T00:57:20.265Z,99.99
2023-05-06T00:58:20.916Z,99.99
2023-05-06T00:59:21.200Z,99.99
2023-05-06T01:00:21.914Z,99.99
2023-05-06T01:01:22.731Z,99.99
2023-05-06T01:02:26.262Z,99.99
2023-05-06T01:03:23.241Z,99.99
2023-05-06T01:04:23.349Z,99.99
2023-05-06T01:05:24.326Z,99.99
2023-05-06T01:06:25.446Z,99.99
2023-05-06T01:07:25.755Z,99.99
2023-05-06T01:08:26.247Z,99.99
2023-05-06T01:09:27.063Z,99.99
2023-05-06T01:10:27.148Z,99.99
2023-05-06T01:11:28.022Z,99.99
2023-05-06T01:12:28.378Z,99.99
2023-05-06T01:13:28.964Z,99.99
2023-05-06T01:14:28.984Z,99.99
2023-05-06T01:15:29.460Z,99.99
2023-05-06T01:16:30.024Z,99.99
2023-05-06T01:17:30.716Z,99.99
2023-05-06T01:18:31.322Z,99.99
2023-05-06T01:19:31.812Z,99.99
2023-05-06T01:20:32.826Z,99.99
2023-05-06T01:21:33.152Z,99.99
2023-05-06T01:22:33.652Z,99.99
2023-05-06T01:23:34.005Z,99.99
2023-05-06T01:24:34.646Z,99.99
2023-05-06T01:25:35.592Z,99.99
2023-05-06T01:26:36.427Z,99.99
2023-05-06T01:27:37.390Z,99.99
2023-05-06T01:28:37.979Z,99.99
2023-05-06T01:29:38.690Z,99.99
2023-05-06T01:30:39.838Z,99.99
2023-05-06T01:31:40.200Z,99.99
2023-05-06T01:32:41.314Z,99.99
2023-05-06T01:33:42.169Z,99.99
2023-05-06T01:34:42.249Z,99.99
2023-05-06T01:35:42.378Z,99.99
2023-05-06T01:36:43.101Z,99.99
2023-05-06T01:37:43.788Z,99.99
2023-05-06T01:38:44.683Z,99.99
2023-05-06T01:39:44.679Z,99.99
2023-05-06T01:40:45.423Z,99.99
2023-05-06T01:41:46.203Z,99.99
2023-05-06T01:42:46.722Z,99.99
2023-05-06T01:43:47.512Z,99.99
2023-05-06T01:44:48.387Z,99.99
2023-05-06T01:45:49.117Z,99.99
2023-05-06T01:46:49.544Z,99.99
2023-05-06T01:47:50.601Z,99.99
2023-05-06T01:48:50.678Z,99.99
2023-05-06T01:49:51.197Z,99.99
2023-05-06T01:50:52.286Z,99.99
2023-05-06T01:51:52.798Z,99.99
2023-05-06T01:52:53.781Z,99.99
2023-05-06T01:53:53.881Z,99.99
2023-05-06T01:54:54.410Z,99.99
2023-05-06T01:55:54.935Z,99.99
2023-05-06T01:56:55.803Z,99.99
2023-05-06T01:57:56.313Z,99.99
2023-05-06T01:58:57.771Z,99.99
2023-05-06T01:59:56.765Z,99.99
2023-05-06T02:00:57.253Z,99.99
2023-05-06T02:01:57.893Z,99.99
2023-05-06T02:02:58.537Z,99.99
2023-05-06T02:03:59.306Z,99.99
2023-05-06T02:04:59.174Z,99.99
2023-05-06T02:05:59.709Z,99.99
2023-05-06T02:07:00.221Z,99.99
2023-05-06T02:08:00.457Z,99.99
2023-05-06T02:09:01.367Z,99.99
2023-05-06T02:10:02.094Z,99.99
2023-05-06T02:11:02.831Z,99.99
2023-05-06T02:12:03.650Z,99.99
2023-05-06T02:13:04.274Z,99.99
2023-05-06T02:14:05.044Z,99.99
2023-05-06T02:15:05.887Z,99.99
2023-05-06T02:16:06.730Z,99.99
2023-05-06T02:17:07.634Z,99.99
2023-05-06T02:18:08.244Z,99.99
2023-05-06T02:19:08.757Z,99.99
2023-05-06T02:20:09.464Z,99.99
2023-05-06T02:21:09.605Z,99.99
2023-05-06T02:22:09.932Z,99.99
2023-05-06T02:23:11.031Z,99.99
2023-05-06T02:24:11.337Z,99.99
2023-05-06T02:25:12.376Z,99.99
2023-05-06T02:26:12.698Z,99.99
2023-05-06T02:27:13.221Z,99.99
2023-05-06T02:28:13.982Z,99.99
2023-05-06T02:29:14.166Z,99.99
2023-05-06T02:30:15.081Z,99.99
2023-05-06T02:31:15.082Z,99.99
2023-05-06T02:32:15.890Z,99.99
2023-05-06T02:33:16.853Z,99.99
2023-05-06T02:34:17.160Z,99.99
2023-05-06T02:35:17.870Z,99.99
2023-05-06T02:36:17.994Z,99.99
2023-05-06T02:37:18.704Z,99.99
2023-05-06T02:38:19.624Z,99.99
2023-05-06T02:39:20.316Z,99.99
2023-05-06T02:40:21.107Z,99.99
2023-05-06T02:41:21.428Z,99.99
2023-05-06T02:42:22.234Z,99.99
2023-05-06T02:43:22.767Z,99.99
2023-05-06T02:44:23.569Z,99.99
2023-05-06T02:45:24.244Z,99.99
2023-05-06T02:46:25.422Z,99.99
2023-05-06T02:47:25.911Z,99.99
2023-05-06T02:48:26.863Z,99.99
2023-05-06T02:49:27.136Z,99.99
2023-05-06T02:50:27.794Z,99.99
2023-05-06T02:51:28.666Z,99.99
2023-05-06T02:52:29.589Z,99.99
2023-05-06T02:53:30.309Z,99.99
2023-05-06T02:54:30.817Z,99.99
2023-05-06T02:55:31.186Z,99.99
2023-05-06T02:56:31.525Z,99.99
2023-05-06T02:57:32.138Z,99.99
2023-05-06T02:58:32.428Z,99.99
2023-05-06T02:59:33.249Z,99.99
2023-05-06T03:00:34.004Z,99.99
2023-05-06T03:01:34.508Z,99.99
2023-05-06T03:02:34.635Z,99.99
2023-05-06T03:03:35.685Z,99.99
2023-05-06T03:04:36.379Z,99.99
2023-05-06T03:05:37.198Z,99.99
2023-05-06T03:06:37.573Z,99.99
2023-05-06T03:07:38.279Z,99.99
2023-05-06T03:08:39.183Z,99.99
2023-05-06T03:09:39.496Z,99.99
2023-05-06T03:10:40.093Z,99.99
2023-05-06T03:11:40.563Z,99.99
2023-05-06T03:12:41.448Z,99.99
2023-05-06T03:13:41.881Z,99.99
2023-05-06T03:14:42.738Z,99.99
2023-05-06T03:15:43.032Z,99.99
2023-05-06T03:16:43.930Z,99.99
2023-05-06T03:17:44.743Z,99.99
2023-05-06T03:18:45.675Z,99.99
2023-05-06T03:19:46.381Z,99.99
2023-05-06T03:20:46.676Z,99.99
2023-05-06T03:21:48.070Z,99.99
2023-05-06T03:22:48.915Z,99.99
2023-05-06T03:23:49.474Z,99.99
2023-05-06T03:24:49.991Z,99.99
2023-05-06T03:25:50.884Z,99.99
2023-05-06T03:26:51.388Z,99.99
2023-05-06T03:27:52.408Z,99.99
2023-05-06T03:28:53.112Z,99.99
2023-05-06T03:29:53.843Z,99.99
2023-05-06T03:30:54.546Z,99.99
2023-05-06T03:31:55.580Z,99.99
2023-05-06T03:32:55.876Z,99.99
2023-05-06T03:33:56.794Z,99.99
2023-05-06T03:34:57.305Z,99.99
2023-05-06T03:35:58.195Z,99.99
2023-05-06T03:36:58.922Z,99.99
2023-05-06T03:37:59.516Z,99.99
2023-05-06T03:39:00.282Z,99.99
2023-05-06T03:40:00.786Z,99.99
2023-05-06T03:41:01.214Z,99.99
2023-05-06T03:42:02.513Z,99.99
2023-05-06T03:43:02.856Z,99.99
2023-05-06T03:44:03.159Z,99.99
2023-05-06T03:45:04.052Z,99.99
2023-05-06T03:46:04.473Z,99.99
2023-05-06T03:47:05.309Z,99.99
2023-05-06T03:48:06.088Z,99.99
2023-05-06T03:49:07.252Z,99.99
2023-05-06T03:50:07.418Z,99.99
2023-05-06T03:51:08.140Z,99.99
2023-05-06T03:52:08.250Z,99.99
2023-05-06T03:53:08.768Z,99.99
2023-05-06T03:54:09.275Z,99.99
2023-05-06T03:55:10.244Z,99.99
2023-05-06T03:56:10.315Z,99.99
2023-05-06T03:57:11.058Z,99.99
2023-05-06T03:58:11.930Z,99.99
2023-05-06T03:59:12.256Z,99.99
2023-05-06T04:00:12.895Z,99.99
2023-05-06T04:01:14.068Z,99.99
2023-05-06T04:02:14.925Z,99.99
2023-05-06T04:03:15.705Z,99.99
2023-05-06T04:04:16.590Z,99.99
2023-05-06T04:05:17.436Z,99.99
2023-05-06T04:06:17.514Z,99.99
2023-05-06T04:07:18.306Z,99.99
2023-05-06T04:08:19.007Z,99.99
2023-05-06T04:09:19.733Z,99.99
2023-05-06T04:10:20.443Z,99.99
2023-05-06T04:11:21.253Z,99.99
2023-05-06T04:12:21.467Z,99.99
2023-05-06T04:13:22.489Z,99.99
2023-05-06T04:14:23.252Z,99.99
2023-05-06T04:15:23.893Z,99.99
2023-05-06T04:16:24.869Z,99.99
2023-05-06T04:17:25.317Z,99.99
2023-05-06T04:18:26.200Z,99.99
2023-05-06T04:19:26.926Z,99.99
2023-05-06T04:20:27.014Z,99.99
2023-05-06T04:21:27.704Z,99.99
2023-05-06T04:22:28.609Z,99.99
2023-05-06T04:23:28.909Z,99.99
2023-05-06T04:24:29.027Z,99.99
2023-05-06T04:25:29.968Z,99.99
2023-05-06T04:26:30.183Z,99.99
2023-05-06T04:27:31.025Z,99.99
2023-05-06T04:28:31.722Z,99.99
2023-05-06T04:29:32.017Z,99.99
2023-05-06T04:30:32.608Z,99.99
2023-05-06T04:31:32.829Z,99.99
2023-05-06T04:32:34.221Z,99.99
2023-05-06T04:33:34.217Z,99.99
2023-05-06T04:34:34.757Z,99.99
2023-05-06T04:35:36.047Z,99.99
2023-05-06T04:36:38.340Z,99.99
2023-05-06T04:37:37.554Z,99.99
2023-05-06T04:38:38.634Z,99.99
2023-05-06T04:39:39.374Z,99.99
2023-05-06T04:40:39.724Z,99.99
2023-05-06T04:41:40.909Z,99.99
2023-05-06T04:42:41.211Z,99.99
2023-05-06T04:43:41.726Z,99.99
2023-05-06T04:44:41.840Z,99.99
2023-05-06T04:45:42.142Z,99.99
2023-05-06T04:46:42.485Z,99.99
2023-05-06T04:47:43.529Z,99.99
2023-05-06T04:48:43.953Z,99.99
2023-05-06T04:49:44.743Z,99.99
2023-05-06T04:50:45.236Z,99.99
2023-05-06T04:51:45.782Z,99.99
2023-05-06T04:52:46.095Z,99.99
2023-05-06T04:53:47.045Z,99.99
2023-05-06T04:54:50.031Z,99.99
2023-05-06T04:55:47.771Z,99.99
2023-05-06T04:56:48.838Z,99.99
2023-05-06T04:57:49.525Z,99.99
2023-05-06T04:58:50.252Z,99.99
2023-05-06T04:59:50.957Z,99.99
2023-05-06T05:00:51.551Z,99.99
2023-05-06T05:01:52.397Z,99.99
2023-05-06T05:02:53.217Z,99.99
2023-05-06T05:03:53.535Z,99.99
2023-05-06T05:04:54.231Z,99.99
2023-05-06T05:05:54.728Z,99.99
2023-05-06T05:06:55.260Z,99.99
2023-05-06T05:07:55.350Z,99.99
2023-05-06T05:08:57.074Z,99.99
2023-05-06T05:09:57.264Z,99.99
2023-05-06T05:10:57.984Z,99.99
2023-05-06T05:11:59.029Z,99.99
2023-05-06T05:12:59.587Z,99.99
2023-05-06T05:14:02.773Z,99.99
2023-05-06T05:15:01.093Z,99.99
2023-05-06T05:16:02.036Z,99.99
2023-05-06T05:17:02.488Z,99.99
2023-05-06T05:18:03.403Z,99.99
2023-05-06T05:19:09.344Z,99.99
2023-05-06T05:20:05.032Z,99.99
2023-05-06T05:21:05.486Z,99.99
2023-05-06T05:22:05.795Z,99.99
2023-05-06T05:23:06.992Z,99.99
2023-05-06T05:24:07.558Z,99.99
2023-05-06T05:25:08.634Z,99.99
2023-05-06T05:26:09.014Z,99.99
2023-05-06T05:27:09.681Z,99.99
2023-05-06T05:28:10.424Z,99.99
2023-05-06T05:29:11.147Z,99.99
2023-05-06T05:30:11.701Z,99.99
2023-05-06T05:31:15.639Z,99.99
2023-05-06T05:32:13.223Z,99.99
2023-05-06T05:33:14.049Z,99.99
2023-05-06T05:34:14.398Z,99.99
2023-05-06T05:35:15.574Z,99.99
2023-05-06T05:36:15.052Z,99.99
2023-05-06T05:37:16.102Z,99.99
2023-05-06T05:38:16.993Z,99.99
2023-05-06T05:39:17.704Z,99.99
2023-05-06T05:40:17.885Z,99.99
2023-05-06T05:41:19.909Z,99.99
2023-05-06T05:42:19.122Z,99.99
2023-05-06T05:43:20.014Z,99.99
2023-05-06T05:44:20.799Z,99.99
2023-05-06T05:45:21.318Z,99.99
2023-05-06T05:46:22.272Z,99.99
2023-05-06T05:48:22.784Z,99.99
2023-05-06T05:49:23.285Z,99.99
2023-05-06T05:50:23.581Z,99.99
2023-05-06T05:51:24.273Z,99.99
2023-05-06T05:52:24.796Z,99.99
2023-05-06T05:53:25.653Z,99.99
2023-05-06T05:54:25.962Z,99.99
2023-05-06T05:55:26.451Z,99.99
2023-05-06T05:56:26.760Z,99.99
2023-05-06T05:57:27.201Z,99.99
2023-05-06T05:58:28.113Z,99.99
2023-05-06T05:59:28.962Z,99.99
2023-05-06T06:00:29.691Z,99.99
2023-05-06T06:01:30.645Z,99.99
2023-05-06T06:02:31.011Z,99.99
2023-05-06T06:03:32.009Z,99.99
2023-05-06T06:04:32.920Z,99.99
2023-05-06T06:05:33.149Z,99.99
2023-05-06T06:06:33.655Z,99.99
2023-05-06T06:07:34.165Z,99.99
2023-05-06T06:08:35.392Z,99.99
2023-05-06T06:09:36.273Z,99.99
2023-05-06T06:10:36.809Z,99.99
2023-05-06T06:11:37.494Z,99.99
2023-05-06T06:12:38.489Z,99.99
2023-05-06T06:13:39.207Z,99.99
2023-05-06T06:14:39.735Z,99.99
2023-05-06T06:15:40.211Z,99.99
2023-05-06T06:16:40.834Z,99.99
2023-05-06T06:17:41.207Z,99.99
2023-05-06T06:18:42.046Z,99.99
2023-05-06T06:19:42.556Z,99.99
2023-05-06T06:20:43.055Z,99.99
2023-05-06T06:21:43.925Z,99.99
2023-05-06T06:22:44.651Z,99.99
2023-05-06T06:23:45.540Z,99.99
2023-05-06T06:24:46.480Z,99.99
2023-05-06T06:25:47.187Z,99.99
2023-05-06T06:26:47.725Z,99.99
2023-05-06T06:27:48.740Z,99.99
2023-05-06T06:28:49.489Z,99.99
2023-05-06T06:29:50.064Z,99.99
2023-05-06T06:30:50.398Z,99.99
2023-05-06T06:31:51.305Z,99.99
2023-05-06T06:32:52.250Z,99.99
2023-05-06T06:33:53.153Z,99.99
2023-05-06T06:34:53.381Z,99.99
2023-05-06T06:35:54.118Z,99.99
2023-05-06T06:36:54.629Z,99.99
2023-05-06T06:37:55.495Z,99.99
2023-05-06T06:38:55.936Z,99.99
2023-05-06T06:39:56.453Z,99.99
2023-05-06T06:40:57.396Z,99.99
2023-05-06T06:41:57.712Z,99.99
2023-05-06T06:42:58.582Z,99.99
2023-05-06T06:43:59.303Z,99.99
2023-05-06T06:45:00.306Z,99.99
2023-05-06T06:46:01.343Z,99.99
2023-05-06T06:47:02.245Z,99.99
2023-05-06T06:48:03.028Z,99.99
2023-05-06T06:49:03.881Z,99.99
2023-05-06T06:50:04.661Z,99.99
2023-05-06T06:51:05.199Z,99.99
2023-05-06T06:52:05.893Z,99.99
2023-05-06T06:53:06.552Z,99.99
2023-05-06T06:54:06.939Z,99.99
2023-05-06T06:55:07.219Z,99.99
2023-05-06T06:56:07.945Z,99.99
2023-05-06T06:57:08.247Z,99.99
2023-05-06T06:58:08.954Z,99.99
2023-05-06T06:59:09.658Z,99.99
2023-05-06T07:00:10.827Z,99.99
2023-05-06T07:01:10.245Z,99.99
2023-05-06T07:02:10.846Z,99.99
2023-05-06T07:03:12.285Z,99.99
2023-05-06T07:04:12.938Z,99.99
2023-05-06T07:05:13.625Z,99.99
2023-05-06T07:06:13.166Z,99.99
2023-05-06T07:07:13.677Z,99.99
2023-05-06T07:08:14.717Z,98.39
2023-05-06T07:09:15.740Z,96.27
2023-05-06T07:10:16.242Z,96.03
2023-05-06T07:11:16.954Z,94.54
2023-05-06T07:12:16.861Z,94.1
2023-05-06T07:13:17.697Z,93.15
2023-05-06T07:14:17.516Z,92.38
2023-05-06T07:15:18.937Z,92.85
2023-05-06T07:16:18.783Z,91.85
2023-05-06T07:17:19.916Z,93.68
2023-05-06T07:18:20.903Z,95.17
2023-05-06T07:19:21.383Z,95.7
2023-05-06T07:20:22.112Z,95.07
2023-05-06T07:21:22.255Z,96.32
2023-05-06T07:22:23.415Z,95.17
2023-05-06T07:23:23.752Z,93.44
2023-05-06T07:24:24.456Z,93.34
2023-05-06T07:25:25.183Z,92.57
2023-05-06T07:26:25.763Z,93.63
2023-05-06T07:27:26.518Z,94.01
2023-05-06T07:28:26.913Z,93.91
2023-05-06T07:29:27.875Z,93.38
2023-05-06T07:30:29.032Z,92.91
2023-05-06T07:31:28.809Z,92.13
2023-05-06T07:32:30.027Z,92.13
2023-05-06T07:33:29.887Z,92.91
2023-05-06T07:34:30.399Z,92.81
2023-05-06T07:35:31.315Z,92.23
2023-05-06T07:36:32.047Z,91.56
2023-05-06T07:37:32.231Z,91.46
2023-05-06T07:38:32.509Z,91.46
2023-05-06T07:39:33.383Z,92.71
2023-05-06T07:40:34.094Z,92.04
2023-05-06T07:41:34.298Z,92.47
2023-05-06T07:42:35.218Z,92.47
2023-05-06T07:43:35.911Z,93.63
2023-05-06T07:44:36.430Z,93.53
2023-05-06T07:45:37.458Z,94.21
2023-05-06T07:46:38.580Z,93.38
2023-05-06T07:47:39.722Z,93.44
2023-05-06T07:49:39.661Z,92.67
2023-05-06T07:50:40.346Z,93.91
2023-05-06T07:51:40.269Z,93.38
2023-05-06T07:52:40.783Z,93.68
2023-05-06T07:53:40.889Z,92.81
2023-05-06T07:54:41.238Z,92.61
2023-05-06T07:55:41.746Z,90.5
2023-05-06T07:56:42.435Z,90.5
2023-05-06T07:57:43.197Z,91.94
2023-05-06T07:58:43.448Z,91.71
2023-05-06T07:59:44.155Z,91.99
2023-05-06T08:00:45.067Z,92.29
2023-05-06T08:01:45.368Z,92.57
2023-05-06T08:02:46.451Z,92.86
2023-05-06T08:03:47.211Z,92.19
2023-05-06T08:04:48.976Z,91.9
2023-05-06T08:05:48.524Z,92.96
2023-05-06T08:06:49.243Z,93.34
2023-05-06T08:07:49.146Z,92.67
2023-05-06T08:08:49.474Z,92.09
2023-05-06T08:09:50.694Z,93.73
2023-05-06T08:10:51.531Z,93.15
2023-05-06T08:11:52.035Z,93.58
2023-05-06T08:12:53.174Z,94.73
2023-05-06T08:13:54.155Z,95.94
2023-05-06T08:14:54.441Z,96.51
2023-05-06T08:15:55.228Z,97.09
2023-05-06T08:16:56.163Z,97.19
2023-05-06T08:17:58.791Z,97.86
2023-05-06T08:19:05.608Z,97.14
2023-05-06T08:20:06.463Z,97.91
2023-05-06T08:21:07.208Z,97.52
2023-05-06T08:22:07.937Z,98.19
2023-05-06T08:23:08.686Z,98.38
2023-05-06T08:24:09.593Z,98.19
2023-05-06T08:25:10.510Z,98.48
2023-05-06T08:26:10.725Z,98.24
2023-05-06T08:27:11.475Z,98.14
2023-05-06T08:28:12.209Z,97.86
2023-05-06T08:29:13.055Z,98.91
2023-05-06T08:30:13.369Z,98.24
2023-05-06T08:31:13.766Z,97.96
2023-05-06T08:32:13.921Z,98.72
2023-05-06T08:33:14.396Z,98.77
2023-05-06T08:34:14.623Z,98.58
2023-05-06T08:35:15.686Z,99.25
2023-05-06T08:36:16.178Z,99.25
2023-05-06T08:37:16.868Z,98.86
2023-05-06T08:38:17.605Z,99.25
2023-05-06T08:39:17.930Z,99.49
2023-05-06T08:40:18.961Z,99.99
2023-05-06T08:41:19.081Z,99.99
2023-05-06T08:42:19.860Z,99.99
2023-05-06T08:43:20.599Z,99.99
2023-05-06T08:44:21.336Z,99.99
2023-05-06T08:45:22.062Z,99.99
2023-05-06T08:46:23.293Z,99.99
2023-05-06T08:47:22.939Z,99.99
2023-05-06T08:48:23.480Z,99.99
2023-05-06T08:49:24.259Z,99.99
2023-05-06T08:50:24.970Z,99.99
2023-05-06T08:51:26.192Z,99.99
2023-05-06T08:52:26.935Z,99.99
2023-05-06T08:53:26.902Z,99.99
2023-05-06T08:54:27.928Z,99.99
2023-05-06T08:55:28.895Z,99.99
2023-05-06T08:56:29.385Z,99.99
2023-05-06T08:57:30.124Z,99.99
2023-05-06T08:58:31.045Z,99.99
2023-05-06T08:59:31.517Z,99.99
2023-05-06T09:00:31.798Z,99.99
2023-05-06T09:01:32.445Z,99.99
2023-05-06T09:02:32.605Z,99.99
2023-05-06T09:03:33.312Z,99.99
2023-05-06T09:04:33.347Z,98.91
2023-05-06T09:05:34.070Z,98.43
2023-05-06T09:06:33.975Z,98.63
2023-05-06T09:07:34.527Z,98.43
2023-05-06T09:08:35.245Z,98.34
2023-05-06T09:09:35.371Z,97.33
2023-05-06T09:10:36.403Z,98.1
2023-05-06T09:11:37.217Z,97.71
2023-05-06T09:12:37.777Z,95.89
2023-05-06T09:13:38.509Z,95.12
2023-05-06T09:14:39.156Z,94.64
2023-05-06T09:15:39.863Z,95.4
2023-05-06T09:16:41.141Z,96.56
2023-05-06T09:17:41.007Z,96.66
2023-05-06T09:18:42.260Z,95.36
2023-05-06T09:19:43.131Z,96.42
2023-05-06T09:20:43.249Z,96.99
2023-05-06T09:21:43.799Z,96.89
2023-05-06T09:22:44.732Z,97.19
2023-05-06T09:23:45.429Z,97.76
2023-05-06T09:24:46.502Z,98.63
2023-05-06T09:25:47.287Z,98.05
2023-05-06T09:26:48.069Z,98.14
2023-05-06T09:27:48.794Z,98.48
2023-05-06T09:28:49.103Z,98.1
2023-05-06T09:29:49.347Z,97.81
2023-05-06T09:30:50.031Z,95.17
2023-05-06T09:31:51.203Z,92.71
2023-05-06T09:32:51.538Z,90.93
2023-05-06T09:33:52.230Z,90.88
2023-05-06T09:34:52.838Z,91.31
2023-05-06T09:35:53.349Z,88.27
2023-05-06T09:36:53.660Z,87.06
2023-05-06T09:37:54.585Z,85.17
2023-05-06T09:38:55.032Z,84.44
2023-05-06T09:39:55.350Z,84.5
2023-05-06T09:40:56.339Z,84.01
2023-05-06T09:41:57.086Z,84.21
2023-05-06T09:42:57.823Z,84.5
2023-05-06T09:43:58.563Z,84.01
2023-05-06T09:45:01.513Z,84.98
2023-05-06T09:46:00.580Z,85.37
2023-05-06T09:47:01.203Z,83.73
2023-05-06T09:48:01.910Z,81.65
2023-05-06T09:49:02.805Z,81.99
2023-05-06T09:50:03.340Z,83.4
2023-05-06T09:51:06.541Z,85.52
2023-05-06T09:52:04.242Z,86.1
2023-05-06T09:53:04.728Z,85.67
2023-05-06T09:54:05.660Z,86.44
2023-05-06T09:55:05.767Z,86.3
2023-05-06T09:56:06.185Z,86.15
2023-05-06T09:57:06.451Z,85.96
2023-05-06T09:58:06.248Z,87.84
2023-05-06T09:59:07.057Z,86.78
2023-05-06T10:00:07.596Z,87.36
2023-05-06T10:01:08.476Z,89.09
2023-05-06T10:02:08.756Z,90.3
2023-05-06T10:03:09.251Z,90.3
2023-05-06T10:04:10.447Z,90.59
2023-05-06T10:05:10.755Z,90.3
2023-05-06T10:06:10.327Z,90.01
2023-05-06T10:07:11.455Z,91.46
2023-05-06T10:08:12.419Z,90.69
2023-05-06T10:09:13.179Z,90.59
2023-05-06T10:10:13.969Z,90.11
2023-05-06T10:11:14.347Z,89
2023-05-06T10:12:15.269Z,90.16
2023-05-06T10:13:15.863Z,89.29
2023-05-06T10:14:16.679Z,88.61
2023-05-06T10:15:17.867Z,88.81
2023-05-06T10:16:21.220Z,86.73
2023-05-06T10:17:19.295Z,85.67
2023-05-06T10:18:19.437Z,83.88
2023-05-06T10:19:21.051Z,84.55
2023-05-06T10:21:21.212Z,82.18
2023-05-06T10:22:21.924Z,81.07
2023-05-06T10:23:22.852Z,82.18
2023-05-06T10:24:23.748Z,82.09
2023-05-06T10:25:24.089Z,82.92
2023-05-06T10:26:25.226Z,83.2
2023-05-06T10:27:25.780Z,82.34
2023-05-06T10:28:35.664Z,82.34
2023-05-06T10:29:28.311Z,81.27
2023-05-06T10:30:27.254Z,81.22
2023-05-06T10:31:27.653Z,80.74
2023-05-06T10:32:28.932Z,79.77
2023-05-06T10:33:29.388Z,80.93
2023-05-06T10:34:30.224Z,80.31
2023-05-06T10:35:30.725Z,80.37
2023-05-06T10:36:31.329Z,80.76
2023-05-06T10:37:31.495Z,79.54
2023-05-06T10:38:32.036Z,79.58
2023-05-06T10:39:32.559Z,79.43
2023-05-06T10:40:33.270Z,79.95
2023-05-06T10:41:34.237Z,79.17
2023-05-06T10:42:35.020Z,76.03
2023-05-06T10:43:35.576Z,75.2
2023-05-06T10:44:36.347Z,74.42
2023-05-06T10:45:37.234Z,74.65
2023-05-06T10:46:38.094Z,72.91
2023-05-06T10:47:39.110Z,74.17
2023-05-06T10:48:39.918Z,74.55
2023-05-06T10:49:40.958Z,75
2023-05-06T10:50:41.808Z,73.3
2023-05-06T10:51:42.776Z,73.97
2023-05-06T10:52:43.312Z,73.3
2023-05-06T10:53:43.270Z,73.1
2023-05-06T10:54:43.805Z,73.2
2023-05-06T10:55:44.539Z,72.91
2023-05-06T10:56:46.362Z,74.85
2023-05-06T10:57:46.025Z,75.95
2023-05-06T10:58:46.741Z,73.53
2023-05-06T10:59:46.852Z,72.42
2023-05-06T11:00:47.948Z,73.2
2023-05-06T11:01:47.845Z,72.72
2023-05-06T11:02:50.937Z,74.55
2023-05-06T11:03:49.252Z,74.42
2023-05-06T11:04:49.873Z,74.96
2023-05-06T11:05:50.149Z,76.42
2023-05-06T11:06:50.336Z,76.09
2023-05-06T11:07:50.658Z,77.05
2023-05-06T11:08:52.124Z,77.3
2023-05-06T11:09:51.616Z,78.27
2023-05-06T11:10:52.112Z,79.33
2023-05-06T11:11:52.917Z,79.81
2023-05-06T11:12:53.538Z,81.22
2023-05-06T11:13:56.035Z,83.92
2023-05-06T11:14:54.569Z,82.03
2023-05-06T11:15:55.112Z,85.8
2023-05-06T11:16:55.332Z,87.96
2023-05-06T11:17:56.309Z,90.23
2023-05-06T11:18:56.016Z,89.26
2023-05-06T11:19:56.851Z,87.13
2023-05-06T11:20:57.317Z,84.05
2023-05-06T11:21:57.285Z,84.63
2023-05-06T11:22:57.701Z,84.53
2023-05-06T11:23:58.216Z,84.05
2023-05-06T11:24:58.536Z,87.43
2023-05-06T11:25:59.078Z,89.84
2023-05-06T11:26:59.103Z,87.13
2023-05-06T11:27:59.409Z,86.46
2023-05-06T11:28:59.716Z,86.02
2023-05-06T11:30:00.666Z,83.61
2023-05-06T11:31:01.594Z,81.09
2023-05-06T11:32:01.516Z,79.74
2023-05-06T11:33:04.604Z,80.51
2023-05-06T11:34:03.363Z,82.31
2023-05-06T11:35:04.307Z,84.43
2023-05-06T11:36:05.222Z,83.47
2023-05-06T11:37:05.999Z,82.69
2023-05-06T11:38:06.850Z,82.73
2023-05-06T11:39:10.572Z,83.12
2023-05-06T11:40:08.429Z,82.89
2023-05-06T11:41:08.714Z,83.18
2023-05-06T11:42:09.959Z,82.69
2023-05-06T11:43:10.696Z,83.27
2023-05-06T11:44:11.601Z,84.3
2023-05-06T11:45:11.761Z,84.88
2023-05-06T11:46:12.634Z,85.99
2023-05-06T11:47:13.796Z,84.83
2023-05-06T11:48:14.885Z,84.58
2023-05-06T11:49:15.223Z,86.13
2023-05-06T11:50:16.373Z,85.06
2023-05-06T11:51:16.454Z,85.84
2023-05-06T11:52:17.005Z,86.42
2023-05-06T11:53:17.438Z,86.32
2023-05-06T11:54:18.167Z,85.94
2023-05-06T11:55:18.478Z,84.82
2023-05-06T11:56:18.994Z,85.84
2023-05-06T11:57:20.079Z,85.55
2023-05-06T11:58:20.987Z,86.32
2023-05-06T11:59:21.511Z,85.26
2023-05-06T12:00:22.484Z,85.45
2023-05-06T12:01:22.767Z,85.64
2023-05-06T12:02:23.666Z,86.22
2023-05-06T12:03:24.073Z,88.93
2023-05-06T12:04:24.336Z,88.54
2023-05-06T12:05:24.656Z,84
2023-05-06T12:06:24.930Z,84.39
2023-05-06T12:07:25.640Z,85.45
2023-05-06T12:08:33.056Z,85.64
2023-05-06T12:09:27.085Z,86.65
2023-05-06T12:10:27.606Z,86.46
2023-05-06T12:11:28.452Z,81.77
2023-05-06T12:12:29.369Z,81.77
2023-05-06T12:13:30.239Z,82.06
2023-05-06T12:14:30.989Z,82.54
2023-05-06T12:15:31.376Z,80.8
2023-05-06T12:16:32.332Z,80.22
2023-05-06T12:17:32.660Z,80.51
2023-05-06T12:18:32.837Z,79.54
2023-05-06T12:19:33.371Z,79.93
2023-05-06T12:20:34.445Z,78.34
2023-05-06T12:21:35.103Z,78.73
2023-05-06T12:22:35.844Z,78.92
2023-05-06T12:23:36.344Z,80.33
2023-05-06T12:24:37.316Z,83.27
2023-05-06T12:25:38.268Z,85.88
2023-05-06T12:26:39.171Z,82.31
2023-05-06T12:27:40.101Z,82.98
2023-05-06T12:28:40.838Z,83.95
2023-05-06T12:29:41.356Z,82.21
2023-05-06T12:30:42.073Z,80.57
2023-05-06T12:31:43.424Z,82.11
2023-05-06T12:32:43.638Z,81.92
2023-05-06T12:33:44.023Z,81.87
2023-05-06T12:34:44.059Z,79.74
2023-05-06T12:35:44.926Z,78.67
2023-05-06T12:36:45.653Z,78.44
2023-05-06T12:37:46.220Z,78.34
2023-05-06T12:38:46.405Z,80.33
2023-05-06T12:39:47.163Z,82.94
2023-05-06T12:40:47.318Z,83.52
2023-05-06T12:41:47.965Z,86.13
2023-05-06T12:42:49.012Z,86.22
2023-05-06T12:43:49.312Z,84.63
2023-05-06T12:44:50.390Z,83.04
2023-05-06T12:45:50.672Z,83.04
2023-05-06T12:46:51.073Z,83.04
2023-05-06T12:47:51.704Z,81.59
2023-05-06T12:48:52.554Z,81.98
2023-05-06T12:49:53.254Z,83.09
2023-05-06T12:50:54.116Z,83.42
2023-05-06T12:51:54.350Z,85.26
2023-05-06T12:52:55.053Z,84.82
2023-05-06T12:53:55.403Z,85.88
2023-05-06T12:54:56.076Z,82.83
2023-05-06T12:55:57.016Z,80.36
2023-05-06T12:56:57.331Z,80.16
2023-05-06T12:57:57.991Z,78.42
2023-05-06T12:58:58.622Z,76.59
2023-05-06T12:59:59.156Z,76.68
2023-05-06T13:00:59.423Z,78.77
2023-05-06T13:01:59.513Z,79.5
2023-05-06T13:03:00.386Z,79.22
2023-05-06T13:04:00.609Z,78.54
2023-05-06T13:05:00.351Z,80.28